Большое Токко

Карта отелей и гостиниц, располагающихся рядом с аэропортом Большое Токко :



Большое Токко Хабаровский край 56° 10' 22.6812" N, 131° 0' 38.52" E

Большое Токко Хабаровский край 56° 10' 22.6812" N, 131° 0' 38.52" E
Код аэродрома ИКАО: 
HA89
Код аэродрома RU: 
ХА89
Координаты: 
N56.17297° E131.01070°
Превышение над уровнем моря : 
848
Основная полоса: 
04/22
Курс магнитный: 
036,8/216,8
Длина основной ВПП: 
1000
Ширина основной ВПП: 
45
Покрытие основной ВПП: 
Нетвёрдое (грунт)
Тип: 
Аэродром
Освещение ВПП: 
Нет
Класс аэродрома: 
Статус: 
Недействующий
Принадлежность: 
ГА
Сайт: 
E-mail аэродрома: 
Страна: 
Россия
Регион: 
Хабаровский край
Город: 
Дополнительная информация: 
Горный. ГВПП поросла. Для посадки самолетов малопригоден.

Найти трансфер

С помощью этой формы Вы можете найти трансфер из аэропорта Большое Токко в город, аэропорт или вокзал:

Карта места

Javascript is required to view this map.

Погода в аэропортах:

Авиационная погода в Липецке

Регион: 
Погода METAR: 
UUOL 210400Z 21002MPS 5000 BR BKN047 M00/M01 Q1023 R15/090060 NOSIG
Время наблюдения: 
2020-02-21T04:00:00Z
Температура C: 
0.0
Точка росы: 
-1.0
Направление ветра: 
210
Скорость ветра: 
4
Метеорологическая видимость: 
3.11
Явления погоды: 
BR
Условия полета: 
MVFR
Аэропорт подробнее: 

Авиационная погода в Кневичи

Регион: 
Погода METAR: 
UHWW 210400Z 10002MPS 060V130 5000 -SHSN BKN020CB M01/M04 Q1029 R25L/0///70 TEMPO 0400 +SHSN VV002 RMK QFE770
Время наблюдения: 
2020-02-21T04:00:00Z
Температура C: 
-1.0
Точка росы: 
-4.0
Направление ветра: 
100
Скорость ветра: 
4
Метеорологическая видимость: 
3.11
Явления погоды: 
-SHSN
Условия полета: 
MVFR
Аэропорт подробнее: 

Авиационная погода в Анапе

Регион: 
Погода METAR: 
URKA 210400Z 07002MPS 4700 BR BKN003 02/02 Q1016 R04/010065 TEMPO 1000 BR BKN002 BKN020CB RMK QBB090 OBST OBSC QFE758/1011
Время наблюдения: 
2020-02-21T04:00:00Z
Температура C: 
2.0
Точка росы: 
2.0
Направление ветра: 
70
Скорость ветра: 
4
Метеорологическая видимость: 
2.92
Явления погоды: 
BR
Условия полета: 
LIFR
Аэропорт подробнее: 

Авиационная погода в Уральске

Регион: 
Погода METAR: 
UARR 210400Z 36003MPS 0250 R04/0250N FZFG SCT001 BKN150 M06/M06 Q1023 R04/CLRD70 TEMPO 0200 FZFG VV001 RMK QBB050 QFE764/1018
Время наблюдения: 
2020-02-21T04:00:00Z
Температура C: 
-6.0
Точка росы: 
-6.0
Направление ветра: 
360
Скорость ветра: 
6
Метеорологическая видимость: 
0.16
Явления погоды: 
FZFG
Условия полета: 
LIFR
Аэропорт подробнее: